createdAt,value
2019-01-24T00:03:09.137Z,42.03
2019-01-24T00:08:10.716Z,40.93
2019-01-24T00:13:12.252Z,41.30
2019-01-24T00:18:13.844Z,39.43
2019-01-24T00:23:15.519Z,39.10
2019-01-24T00:28:17.049Z,39.90
2019-01-24T00:33:18.613Z,40.83
2019-01-24T00:38:20.201Z,39.00
2019-01-24T00:43:21.881Z,37.63
2019-01-24T00:48:24.292Z,37.80
2019-01-24T00:53:26.191Z,37.73
2019-01-24T00:58:28.082Z,35.33
2019-01-24T01:03:29.591Z,37.23
2019-01-24T01:08:31.179Z,34.33
2019-01-24T01:13:32.756Z,34.70
2019-01-24T01:18:34.330Z,33.57
2019-01-24T01:23:35.910Z,35.33
2019-01-24T01:28:37.483Z,34.90
2019-01-24T01:33:39.367Z,34.97
2019-01-24T01:38:40.974Z,36.37
2019-01-24T01:43:43.119Z,34.77
2019-01-24T01:48:44.745Z,36.37
2019-01-24T01:53:46.314Z,33.47
2019-01-24T01:58:48.385Z,35.10
2019-01-24T02:03:50.290Z,33.97
2019-01-24T02:08:51.968Z,34.20
2019-01-24T02:13:53.535Z,35.90
2019-01-24T02:18:55.081Z,34.37
2019-01-24T02:23:56.705Z,36.00
2019-01-24T02:28:58.281Z,35.27
2019-01-24T02:33:59.843Z,36.10
2019-01-24T02:39:01.396Z,36.33
2019-01-24T02:44:02.923Z,36.73
2019-01-24T02:49:04.465Z,36.30
2019-01-24T02:54:06.005Z,36.27
2019-01-24T02:59:07.604Z,37.00
2019-01-24T03:04:09.180Z,36.03
2019-01-24T03:09:10.711Z,35.67
2019-01-24T03:14:12.291Z,36.67
2019-01-24T03:19:14.607Z,36.20
2019-01-24T03:24:16.242Z,36.90
2019-01-24T03:29:17.822Z,37.97
2019-01-24T03:34:19.450Z,38.43
2019-01-24T03:39:21.066Z,39.17
2019-01-24T03:44:22.622Z,39.67
2019-01-24T03:49:24.567Z,41.10
2019-01-24T03:54:26.132Z,43.03
2019-01-24T03:59:27.675Z,44.20
2019-01-24T04:04:29.205Z,45.37
2019-01-24T04:09:30.825Z,46.87
2019-01-24T04:14:32.763Z,47.13
2019-01-24T04:19:34.347Z,45.10
2019-01-24T04:24:35.909Z,46.13
2019-01-24T04:29:37.960Z,45.30
2019-01-24T04:34:39.525Z,46.00
2019-01-24T04:39:41.478Z,47.30
2019-01-24T04:44:42.997Z,47.90
2019-01-24T04:49:44.572Z,45.40
2019-01-24T04:54:46.137Z,48.93
2019-01-24T04:59:47.724Z,47.57
2019-01-24T05:04:49.311Z,46.70
2019-01-24T05:09:51.322Z,46.40
2019-01-24T05:14:52.835Z,48.70
2019-01-24T05:19:54.383Z,46.73
2019-01-24T05:24:56.042Z,46.20
2019-01-24T05:29:57.633Z,48.57
2019-01-24T05:34:59.173Z,46.63
2019-01-24T05:40:00.724Z,48.33
2019-01-24T05:45:02.262Z,47.37
2019-01-24T05:50:04.606Z,50.17
2019-01-24T05:55:06.817Z,48.90
2019-01-24T06:00:10.967Z,48.03
2019-01-24T06:05:12.757Z,46.07
2019-01-24T06:10:14.665Z,48.50
2019-01-24T06:15:16.235Z,45.50
2019-01-24T06:20:17.853Z,49.20
2019-01-24T06:25:19.763Z,46.23
2019-01-24T06:30:21.321Z,47.47
2019-01-24T06:35:23.192Z,48.20
2019-01-24T06:40:24.811Z,47.77
2019-01-24T06:45:26.350Z,45.83
2019-01-24T06:50:28.078Z,47.43
2019-01-24T06:55:29.787Z,49.20
2019-01-24T07:00:32.036Z,46.10
2019-01-24T07:05:34.033Z,46.40
2019-01-24T07:10:35.913Z,48.70
2019-01-24T07:15:37.418Z,48.57
2019-01-24T07:20:38.987Z,45.33
2019-01-24T07:25:40.513Z,47.40
2019-01-24T07:30:42.067Z,47.70
2019-01-24T07:35:43.852Z,49.10
2019-01-24T07:40:45.412Z,50.67
2019-01-24T07:45:47.443Z,48.70
2019-01-24T07:50:49.026Z,63.58
2019-01-24T07:55:50.636Z,49.50
2019-01-24T08:00:52.207Z,47.30
2019-01-24T08:05:53.766Z,46.27
2019-01-24T08:10:55.312Z,45.13
2019-01-24T08:15:56.875Z,45.27
2019-01-24T08:20:58.555Z,45.63
2019-01-24T08:26:00.908Z,47.07
2019-01-24T08:31:02.774Z,45.60
2019-01-24T08:36:04.365Z,47.73
2019-01-24T08:41:05.966Z,50.17
2019-01-24T08:46:07.539Z,48.77
2019-01-24T08:51:09.174Z,51.80
2019-01-24T08:56:11.247Z,54.67
2019-01-24T09:01:12.927Z,50.07
2019-01-24T09:06:14.557Z,49.83
2019-01-24T09:11:16.160Z,48.67
2019-01-24T09:16:17.805Z,49.83
2019-01-24T09:21:19.323Z,47.83
2019-01-24T09:26:20.873Z,48.90
2019-01-24T09:31:22.904Z,47.33
2019-01-24T09:36:29.208Z,46.00
2019-01-24T09:41:28.678Z,47.07
2019-01-24T09:46:30.612Z,49.87
2019-01-24T09:51:32.187Z,44.80
2019-01-24T09:56:33.769Z,47.00
2019-01-24T10:01:35.637Z,48.50
2019-01-24T10:06:37.221Z,48.23
2019-01-24T10:11:38.821Z,50.20
2019-01-24T10:16:40.454Z,49.03
2019-01-24T10:21:42.092Z,48.27
2019-01-24T10:26:44.076Z,48.33
2019-01-24T10:31:46.486Z,50.83
2019-01-24T10:36:48.051Z,47.40
2019-01-24T10:41:49.686Z,47.80
2019-01-24T10:46:52.585Z,46.50
2019-01-24T10:51:54.232Z,47.57
2019-01-24T10:56:56.292Z,46.53
2019-01-24T11:01:58.015Z,47.87
2019-01-24T11:06:59.996Z,48.13
2019-01-24T11:12:01.608Z,49.37
2019-01-24T11:17:03.333Z,47.77
2019-01-24T11:22:04.836Z,48.93
2019-01-24T11:27:06.810Z,50.67
2019-01-24T11:32:08.768Z,47.17
2019-01-24T11:37:10.367Z,48.33
2019-01-24T11:42:12.017Z,49.40
2019-01-24T11:47:13.525Z,47.67
2019-01-24T11:52:15.112Z,47.10
2019-01-24T11:57:17.109Z,49.83
2019-01-24T12:02:18.761Z,50.87
2019-01-24T12:07:20.411Z,48.47
2019-01-24T12:12:22.419Z,48.47
2019-01-24T12:17:24.854Z,48.47
2019-01-24T12:22:26.504Z,47.87
2019-01-24T12:27:28.440Z,47.80
2019-01-24T12:32:30.565Z,49.23
2019-01-24T12:37:32.225Z,48.40
2019-01-24T12:42:34.174Z,48.00
2019-01-24T12:47:35.748Z,49.47
2019-01-24T12:52:37.342Z,47.57
2019-01-24T12:57:39.313Z,48.70
2019-01-24T13:02:40.993Z,49.17
2019-01-24T13:07:42.544Z,46.63
2019-01-24T13:12:44.143Z,46.87
2019-01-24T13:17:46.136Z,47.07
2019-01-24T13:22:47.760Z,47.40
2019-01-24T13:27:50.754Z,46.50
2019-01-24T13:32:52.571Z,49.37
2019-01-24T13:37:54.348Z,48.33
2019-01-24T13:42:56.443Z,47.93
2019-01-24T13:47:59.063Z,49.33
2019-01-24T13:53:01.353Z,45.30
2019-01-24T13:58:03.275Z,47.00
2019-01-24T14:03:14.288Z,53.00
2019-01-24T14:08:15.901Z,47.93
2019-01-24T14:13:17.558Z,49.13
2019-01-24T14:18:19.121Z,45.97
2019-01-24T14:23:20.721Z,46.43
2019-01-24T14:28:22.237Z,47.93
2019-01-24T14:33:23.821Z,44.53
2019-01-24T14:38:25.788Z,48.70
2019-01-24T14:43:27.413Z,47.63
2019-01-24T14:48:29.601Z,46.33
2019-01-24T14:53:31.149Z,47.73
2019-01-24T14:58:32.695Z,47.53
2019-01-24T15:03:34.347Z,48.27
2019-01-24T15:08:35.977Z,48.67
2019-01-24T15:13:37.682Z,47.20
2019-01-24T15:18:39.285Z,48.57
2019-01-24T15:23:40.881Z,46.97
2019-01-24T15:28:42.551Z,48.83
2019-01-24T15:33:44.507Z,49.67
2019-01-24T15:38:46.104Z,45.83
2019-01-24T15:43:47.692Z,45.90
2019-01-24T15:48:49.257Z,46.93
2019-01-24T15:53:50.858Z,47.97
2019-01-24T15:58:52.788Z,47.97
2019-01-24T16:03:54.370Z,47.40
2019-01-24T16:09:03.571Z,49.63
2019-01-24T16:14:05.208Z,48.93
2019-01-24T16:19:06.851Z,46.80
2019-01-24T16:24:08.431Z,48.07
2019-01-24T16:29:09.987Z,63.73
2019-01-24T16:34:11.909Z,50.77
2019-01-24T16:39:13.522Z,47.10
2019-01-24T16:44:15.319Z,46.47
2019-01-24T16:49:16.937Z,47.93
2019-01-24T16:54:18.676Z,47.07
2019-01-24T16:59:21.731Z,49.00
2019-01-24T17:04:23.281Z,48.57
2019-01-24T17:09:24.890Z,48.67
2019-01-24T17:14:26.431Z,47.87
2019-01-24T17:19:28.374Z,47.57
2019-01-24T17:24:30.403Z,48.57
2019-01-24T17:29:32.204Z,45.73
2019-01-24T17:34:33.827Z,49.53
2019-01-24T17:39:35.450Z,47.63
2019-01-24T17:44:37.117Z,50.00
2019-01-24T17:49:38.743Z,48.57
2019-01-24T17:54:40.277Z,50.90
2019-01-24T17:59:42.671Z,48.77
2019-01-24T18:04:44.341Z,49.63
2019-01-24T18:09:45.929Z,48.00
2019-01-24T18:14:47.547Z,49.87
2019-01-24T18:19:49.365Z,48.37
2019-01-24T18:24:50.977Z,48.33
2019-01-24T18:29:52.533Z,49.53
2019-01-24T18:34:54.132Z,45.80
2019-01-24T18:39:55.676Z,46.90
2019-01-24T18:44:57.294Z,46.33
2019-01-24T18:49:58.889Z,47.70
2019-01-24T18:55:01.227Z,43.70
2019-01-24T19:00:03.752Z,45.73
2019-01-24T19:05:06.710Z,44.03
2019-01-24T19:10:09.071Z,44.83
2019-01-24T19:15:12.289Z,44.40
2019-01-24T19:20:15.018Z,44.63
2019-01-24T19:25:16.716Z,44.63
2019-01-24T19:30:23.587Z,44.10
2019-01-24T19:35:26.047Z,45.27
2019-01-24T19:40:27.974Z,44.50
2019-01-24T19:45:30.121Z,44.03
2019-01-24T19:50:31.691Z,45.03
2019-01-24T19:55:34.044Z,44.43
2019-01-24T20:00:36.708Z,44.97
2019-01-24T20:05:38.564Z,44.03
2019-01-24T20:10:40.334Z,44.50
2019-01-24T20:15:43.220Z,46.33
2019-01-24T20:20:44.870Z,45.87
2019-01-24T20:25:46.647Z,45.90
2019-01-24T20:30:48.267Z,46.00
2019-01-24T20:35:52.706Z,42.03
2019-01-24T20:40:54.506Z,44.73
2019-01-24T20:45:56.773Z,43.67
2019-01-24T20:51:01.010Z,47.40
2019-01-24T20:56:03.056Z,47.53
2019-01-24T21:01:05.026Z,45.83
2019-01-24T21:06:06.585Z,46.70
2019-01-24T21:11:08.505Z,47.00
2019-01-24T21:16:10.700Z,47.10
2019-01-24T21:21:12.714Z,45.83
2019-01-24T21:26:14.372Z,45.77
2019-01-24T21:31:18.047Z,45.97
2019-01-24T21:36:19.705Z,44.27
2019-01-24T21:41:21.372Z,45.33
2019-01-24T21:46:24.618Z,44.63
2019-01-24T21:51:26.352Z,45.93
2019-01-24T21:56:27.973Z,47.23
2019-01-24T22:01:29.608Z,47.37
2019-01-24T22:06:31.398Z,43.97
2019-01-24T22:11:33.055Z,47.37
2019-01-24T22:16:34.632Z,45.03
2019-01-24T22:21:36.287Z,47.73
2019-01-24T22:26:38.269Z,45.23
2019-01-24T22:31:39.879Z,47.67
2019-01-24T22:36:41.568Z,43.93
2019-01-24T22:41:43.462Z,47.63
2019-01-24T22:46:45.031Z,46.00
2019-01-24T22:51:46.638Z,46.67
2019-01-24T22:56:48.685Z,47.37
2019-01-24T23:02:00.791Z,45.73
2019-01-24T23:07:02.411Z,48.63
2019-01-24T23:12:04.147Z,46.77
2019-01-24T23:17:05.686Z,49.87
2019-01-24T23:22:07.367Z,46.63
2019-01-24T23:27:08.923Z,48.23
2019-01-24T23:32:10.929Z,50.07
2019-01-24T23:37:12.489Z,48.00
2019-01-24T23:42:14.062Z,49.10
2019-01-24T23:47:15.663Z,51.03
2019-01-24T23:52:17.239Z,49.03
2019-01-24T23:57:23.894Z,50.87
